sensor_id;sensor_type;location;lat;lon;timestamp;P1;durP1;ratioP1;P2;durP2;ratioP2
57441;SDS011;43284;47.042;15.498;2024-03-07T00:00:08;13.18;;;6.75;;
57441;SDS011;43284;47.042;15.498;2024-03-07T00:02:50;13.63;;;5.93;;
57441;SDS011;43284;47.042;15.498;2024-03-07T00:05:20;14.38;;;5.53;;
57441;SDS011;43284;47.042;15.498;2024-03-07T00:07:49;19.08;;;7.03;;
57441;SDS011;43284;47.042;15.498;2024-03-07T00:10:15;17.33;;;6.65;;
57441;SDS011;43284;47.042;15.498;2024-03-07T00:12:42;16.70;;;7.38;;
57441;SDS011;43284;47.042;15.498;2024-03-07T00:15:08;16.92;;;6.10;;
57441;SDS011;43284;47.042;15.498;2024-03-07T00:17:36;12.25;;;6.00;;
57441;SDS011;43284;47.042;15.498;2024-03-07T00:20:02;17.90;;;6.55;;
57441;SDS011;43284;47.042;15.498;2024-03-07T00:22:37;14.10;;;5.68;;
57441;SDS011;43284;47.042;15.498;2024-03-07T00:25:03;19.58;;;6.07;;
57441;SDS011;43284;47.042;15.498;2024-03-07T00:27:34;11.55;;;4.78;;
57441;SDS011;43284;47.042;15.498;2024-03-07T00:30:01;13.23;;;6.25;;
57441;SDS011;43284;47.042;15.498;2024-03-07T00:32:30;20.90;;;8.13;;
57441;SDS011;43284;47.042;15.498;2024-03-07T00:35:00;15.98;;;6.30;;
57441;SDS011;43284;47.042;15.498;2024-03-07T00:37:28;17.58;;;5.65;;
57441;SDS011;43284;47.042;15.498;2024-03-07T00:39:55;15.70;;;5.70;;
57441;SDS011;43284;47.042;15.498;2024-03-07T00:42:21;15.88;;;5.93;;
57441;SDS011;43284;47.042;15.498;2024-03-07T00:44:47;18.48;;;6.57;;
57441;SDS011;43284;47.042;15.498;2024-03-07T00:47:14;16.15;;;6.03;;
57441;SDS011;43284;47.042;15.498;2024-03-07T00:49:43;15.30;;;6.47;;
57441;SDS011;43284;47.042;15.498;2024-03-07T00:52:09;16.70;;;5.38;;
57441;SDS011;43284;47.042;15.498;2024-03-07T00:54:35;15.13;;;6.05;;
57441;SDS011;43284;47.042;15.498;2024-03-07T00:57:07;17.08;;;6.43;;
57441;SDS011;43284;47.042;15.498;2024-03-07T00:59:33;24.05;;;7.60;;
57441;SDS011;43284;47.042;15.498;2024-03-07T01:01:59;17.70;;;6.80;;
57441;SDS011;43284;47.042;15.498;2024-03-07T01:04:24;20.88;;;7.55;;
57441;SDS011;43284;47.042;15.498;2024-03-07T01:06:56;18.10;;;5.95;;
57441;SDS011;43284;47.042;15.498;2024-03-07T01:09:22;13.35;;;5.78;;
57441;SDS011;43284;47.042;15.498;2024-03-07T01:11:48;18.25;;;7.40;;
57441;SDS011;43284;47.042;15.498;2024-03-07T01:14:14;17.05;;;7.03;;
57441;SDS011;43284;47.042;15.498;2024-03-07T01:16:42;20.75;;;6.47;;
57441;SDS011;43284;47.042;15.498;2024-03-07T01:19:08;18.60;;;6.15;;
57441;SDS011;43284;47.042;15.498;2024-03-07T01:21:34;13.75;;;5.88;;
57441;SDS011;43284;47.042;15.498;2024-03-07T01:24:00;12.32;;;5.93;;
57441;SDS011;43284;47.042;15.498;2024-03-07T01:26:30;17.90;;;6.45;;
57441;SDS011;43284;47.042;15.498;2024-03-07T01:28:58;18.35;;;6.35;;
57441;SDS011;43284;47.042;15.498;2024-03-07T01:31:24;17.60;;;6.00;;
57441;SDS011;43284;47.042;15.498;2024-03-07T01:33:50;17.42;;;5.93;;
57441;SDS011;43284;47.042;15.498;2024-03-07T01:36:16;14.82;;;5.38;;
57441;SDS011;43284;47.042;15.498;2024-03-07T01:38:45;12.43;;;5.80;;
57441;SDS011;43284;47.042;15.498;2024-03-07T01:41:11;18.50;;;5.85;;
57441;SDS011;43284;47.042;15.498;2024-03-07T01:43:40;18.10;;;5.40;;
57441;SDS011;43284;47.042;15.498;2024-03-07T01:46:06;16.77;;;6.25;;
57441;SDS011;43284;47.042;15.498;2024-03-07T01:48:33;14.15;;;5.13;;
57441;SDS011;43284;47.042;15.498;2024-03-07T01:51:02;18.48;;;5.80;;
57441;SDS011;43284;47.042;15.498;2024-03-07T01:53:31;15.63;;;6.63;;
57441;SDS011;43284;47.042;15.498;2024-03-07T01:56:02;16.73;;;5.85;;
57441;SDS011;43284;47.042;15.498;2024-03-07T01:58:37;15.73;;;5.53;;
57441;SDS011;43284;47.042;15.498;2024-03-07T02:01:02;13.18;;;5.18;;
57441;SDS011;43284;47.042;15.498;2024-03-07T02:03:28;11.73;;;5.60;;
57441;SDS011;43284;47.042;15.498;2024-03-07T02:05:54;15.85;;;5.72;;
57441;SDS011;43284;47.042;15.498;2024-03-07T02:08:19;20.88;;;6.18;;
57441;SDS011;43284;47.042;15.498;2024-03-07T02:10:45;15.10;;;5.97;;
57441;SDS011;43284;47.042;15.498;2024-03-07T02:13:11;20.10;;;5.88;;
57441;SDS011;43284;47.042;15.498;2024-03-07T02:15:36;18.67;;;5.45;;
57441;SDS011;43284;47.042;15.498;2024-03-07T02:18:02;13.88;;;5.82;;
57441;SDS011;43284;47.042;15.498;2024-03-07T02:20:28;14.88;;;5.97;;
57441;SDS011;43284;47.042;15.498;2024-03-07T02:22:54;20.60;;;5.95;;
57441;SDS011;43284;47.042;15.498;2024-03-07T02:25:20;14.38;;;5.75;;
57441;SDS011;43284;47.042;15.498;2024-03-07T02:27:45;15.70;;;6.72;;
57441;SDS011;43284;47.042;15.498;2024-03-07T02:30:11;19.25;;;6.82;;
57441;SDS011;43284;47.042;15.498;2024-03-07T02:32:37;13.52;;;5.55;;
57441;SDS011;43284;47.042;15.498;2024-03-07T02:35:04;17.23;;;6.13;;
57441;SDS011;43284;47.042;15.498;2024-03-07T02:37:30;17.35;;;6.68;;
57441;SDS011;43284;47.042;15.498;2024-03-07T02:39:56;18.08;;;6.40;;
57441;SDS011;43284;47.042;15.498;2024-03-07T02:42:22;18.13;;;5.70;;
57441;SDS011;43284;47.042;15.498;2024-03-07T02:44:47;16.67;;;6.47;;
57441;SDS011;43284;47.042;15.498;2024-03-07T02:47:13;15.68;;;6.22;;
57441;SDS011;43284;47.042;15.498;2024-03-07T02:49:38;18.40;;;6.32;;
57441;SDS011;43284;47.042;15.498;2024-03-07T02:52:04;13.30;;;5.68;;
57441;SDS011;43284;47.042;15.498;2024-03-07T02:54:33;15.00;;;6.13;;
57441;SDS011;43284;47.042;15.498;2024-03-07T02:56:59;16.92;;;6.50;;
57441;SDS011;43284;47.042;15.498;2024-03-07T02:59:25;14.85;;;5.63;;
57441;SDS011;43284;47.042;15.498;2024-03-07T03:01:51;13.80;;;5.45;;
57441;SDS011;43284;47.042;15.498;2024-03-07T03:04:16;16.30;;;5.55;;
57441;SDS011;43284;47.042;15.498;2024-03-07T03:06:45;15.13;;;4.80;;
57441;SDS011;43284;47.042;15.498;2024-03-07T03:09:11;14.88;;;5.47;;
57441;SDS011;43284;47.042;15.498;2024-03-07T03:11:42;14.35;;;5.78;;
57441;SDS011;43284;47.042;15.498;2024-03-07T03:14:08;13.02;;;5.15;;
57441;SDS011;43284;47.042;15.498;2024-03-07T03:16:42;18.75;;;6.57;;
57441;SDS011;43284;47.042;15.498;2024-03-07T03:19:16;22.38;;;5.30;;
57441;SDS011;43284;47.042;15.498;2024-03-07T03:21:42;12.68;;;5.70;;
57441;SDS011;43284;47.042;15.498;2024-03-07T03:24:08;16.60;;;6.90;;
57441;SDS011;43284;47.042;15.498;2024-03-07T03:26:33;17.00;;;6.15;;
57441;SDS011;43284;47.042;15.498;2024-03-07T03:28:59;18.58;;;6.05;;
57441;SDS011;43284;47.042;15.498;2024-03-07T03:31:25;16.85;;;6.20;;
57441;SDS011;43284;47.042;15.498;2024-03-07T03:33:50;13.52;;;5.85;;
57441;SDS011;43284;47.042;15.498;2024-03-07T03:36:17;15.55;;;6.22;;
57441;SDS011;43284;47.042;15.498;2024-03-07T03:38:44;16.13;;;6.00;;
57441;SDS011;43284;47.042;15.498;2024-03-07T03:41:09;13.82;;;5.55;;
57441;SDS011;43284;47.042;15.498;2024-03-07T03:43:40;19.15;;;6.18;;
57441;SDS011;43284;47.042;15.498;2024-03-07T03:46:09;23.27;;;7.70;;
57441;SDS011;43284;47.042;15.498;2024-03-07T03:48:35;19.35;;;5.78;;
57441;SDS011;43284;47.042;15.498;2024-03-07T03:51:01;17.98;;;6.28;;
57441;SDS011;43284;47.042;15.498;2024-03-07T03:53:26;18.60;;;6.60;;
57441;SDS011;43284;47.042;15.498;2024-03-07T03:55:52;19.95;;;8.20;;
57441;SDS011;43284;47.042;15.498;2024-03-07T03:58:17;14.40;;;5.72;;
57441;SDS011;43284;47.042;15.498;2024-03-07T04:00:46;13.95;;;5.60;;
57441;SDS011;43284;47.042;15.498;2024-03-07T04:03:11;16.00;;;5.32;;
57441;SDS011;43284;47.042;15.498;2024-03-07T04:05:37;15.40;;;5.72;;
57441;SDS011;43284;47.042;15.498;2024-03-07T04:08:02;16.73;;;5.40;;
57441;SDS011;43284;47.042;15.498;2024-03-07T04:10:29;12.82;;;5.03;;
57441;SDS011;43284;47.042;15.498;2024-03-07T04:12:54;16.90;;;5.68;;
57441;SDS011;43284;47.042;15.498;2024-03-07T04:15:20;19.30;;;5.72;;
57441;SDS011;43284;47.042;15.498;2024-03-07T04:17:47;18.63;;;6.57;;
57441;SDS011;43284;47.042;15.498;2024-03-07T04:20:12;12.60;;;4.78;;
57441;SDS011;43284;47.042;15.498;2024-03-07T04:22:38;15.93;;;6.45;;
57441;SDS011;43284;47.042;15.498;2024-03-07T04:25:05;15.80;;;5.82;;
57441;SDS011;43284;47.042;15.498;2024-03-07T04:27:32;14.68;;;5.70;;
57441;SDS011;43284;47.042;15.498;2024-03-07T04:29:59;10.20;;;4.72;;
57441;SDS011;43284;47.042;15.498;2024-03-07T04:32:28;13.80;;;5.50;;
57441;SDS011;43284;47.042;15.498;2024-03-07T04:34:54;14.00;;;5.15;;
57441;SDS011;43284;47.042;15.498;2024-03-07T04:37:22;15.05;;;5.47;;
57441;SDS011;43284;47.042;15.498;2024-03-07T04:39:57;14.18;;;5.22;;
57441;SDS011;43284;47.042;15.498;2024-03-07T04:42:23;10.50;;;4.85;;
57441;SDS011;43284;47.042;15.498;2024-03-07T04:44:48;12.45;;;4.93;;
57441;SDS011;43284;47.042;15.498;2024-03-07T04:47:16;11.40;;;5.00;;
57441;SDS011;43284;47.042;15.498;2024-03-07T04:49:42;16.90;;;5.43;;
57441;SDS011;43284;47.042;15.498;2024-03-07T04:52:08;12.98;;;5.18;;
57441;SDS011;43284;47.042;15.498;2024-03-07T04:54:34;13.30;;;4.93;;
57441;SDS011;43284;47.042;15.498;2024-03-07T04:57:00;19.67;;;6.70;;
57441;SDS011;43284;47.042;15.498;2024-03-07T04:59:25;14.18;;;5.75;;
57441;SDS011;43284;47.042;15.498;2024-03-07T05:01:54;11.50;;;4.72;;
57441;SDS011;43284;47.042;15.498;2024-03-07T05:04:20;11.98;;;4.93;;
57441;SDS011;43284;47.042;15.498;2024-03-07T05:06:48;14.65;;;6.07;;
57441;SDS011;43284;47.042;15.498;2024-03-07T05:09:16;13.95;;;6.47;;
57441;SDS011;43284;47.042;15.498;2024-03-07T05:11:48;20.85;;;8.73;;
57441;SDS011;43284;47.042;15.498;2024-03-07T05:14:21;21.83;;;8.73;;
57441;SDS011;43284;47.042;15.498;2024-03-07T05:16:53;18.33;;;7.03;;
57441;SDS011;43284;47.042;15.498;2024-03-07T05:19:33;14.50;;;6.05;;
57441;SDS011;43284;47.042;15.498;2024-03-07T05:22:00;15.93;;;7.07;;
57441;SDS011;43284;47.042;15.498;2024-03-07T05:24:26;17.77;;;7.13;;
57441;SDS011;43284;47.042;15.498;2024-03-07T05:26:52;16.20;;;6.28;;
57441;SDS011;43284;47.042;15.498;2024-03-07T05:29:19;13.70;;;5.10;;
57441;SDS011;43284;47.042;15.498;2024-03-07T05:31:45;14.65;;;5.72;;
57441;SDS011;43284;47.042;15.498;2024-03-07T05:34:16;14.98;;;5.93;;
57441;SDS011;43284;47.042;15.498;2024-03-07T05:36:45;12.27;;;5.13;;
57441;SDS011;43284;47.042;15.498;2024-03-07T05:39:15;12.50;;;5.22;;
57441;SDS011;43284;47.042;15.498;2024-03-07T05:41:42;15.85;;;5.72;;
57441;SDS011;43284;47.042;15.498;2024-03-07T05:44:10;13.00;;;5.90;;
57441;SDS011;43284;47.042;15.498;2024-03-07T05:46:39;15.45;;;5.32;;
57441;SDS011;43284;47.042;15.498;2024-03-07T05:49:14;15.25;;;5.53;;
57441;SDS011;43284;47.042;15.498;2024-03-07T05:51:46;11.65;;;4.93;;
57441;SDS011;43284;47.042;15.498;2024-03-07T05:54:12;17.52;;;6.55;;
57441;SDS011;43284;47.042;15.498;2024-03-07T05:56:38;17.80;;;7.35;;
57441;SDS011;43284;47.042;15.498;2024-03-07T05:59:05;14.98;;;5.30;;
57441;SDS011;43284;47.042;15.498;2024-03-07T06:01:40;15.23;;;6.63;;
57441;SDS011;43284;47.042;15.498;2024-03-07T06:04:06;10.88;;;5.45;;
57441;SDS011;43284;47.042;15.498;2024-03-07T06:06:32;13.50;;;5.18;;
57441;SDS011;43284;47.042;15.498;2024-03-07T06:09:00;14.65;;;5.22;;
57441;SDS011;43284;47.042;15.498;2024-03-07T06:11:42;12.55;;;5.22;;
57441;SDS011;43284;47.042;15.498;2024-03-07T06:14:19;15.13;;;5.80;;
57441;SDS011;43284;47.042;15.498;2024-03-07T06:17:06;14.48;;;5.82;;
57441;SDS011;43284;47.042;15.498;2024-03-07T06:19:51;16.58;;;5.88;;
57441;SDS011;43284;47.042;15.498;2024-03-07T06:22:50;15.07;;;5.28;;
57441;SDS011;43284;47.042;15.498;2024-03-07T06:25:27;16.83;;;5.10;;
57441;SDS011;43284;47.042;15.498;2024-03-07T06:28:05;21.02;;;5.45;;
57441;SDS011;43284;47.042;15.498;2024-03-07T06:30:37;16.98;;;6.05;;
57441;SDS011;43284;47.042;15.498;2024-03-07T06:33:08;22.00;;;7.70;;
57441;SDS011;43284;47.042;15.498;2024-03-07T06:35:34;18.45;;;7.43;;
57441;SDS011;43284;47.042;15.498;2024-03-07T06:38:02;23.92;;;7.97;;
57441;SDS011;43284;47.042;15.498;2024-03-07T06:40:28;12.93;;;5.05;;
57441;SDS011;43284;47.042;15.498;2024-03-07T06:42:58;15.95;;;6.05;;
57441;SDS011;43284;47.042;15.498;2024-03-07T06:45:24;15.98;;;6.57;;
57441;SDS011;43284;47.042;15.498;2024-03-07T06:47:50;20.60;;;7.85;;
57441;SDS011;43284;47.042;15.498;2024-03-07T06:50:17;21.77;;;8.68;;
57441;SDS011;43284;47.042;15.498;2024-03-07T06:52:50;21.42;;;8.85;;
57441;SDS011;43284;47.042;15.498;2024-03-07T06:55:17;22.08;;;8.30;;
57441;SDS011;43284;47.042;15.498;2024-03-07T06:57:44;30.35;;;10.32;;
57441;SDS011;43284;47.042;15.498;2024-03-07T07:00:11;26.92;;;9.90;;
57441;SDS011;43284;47.042;15.498;2024-03-07T07:02:37;21.73;;;8.85;;
57441;SDS011;43284;47.042;15.498;2024-03-07T07:05:04;25.88;;;9.02;;
57441;SDS011;43284;47.042;15.498;2024-03-07T07:07:36;28.23;;;10.15;;
57441;SDS011;43284;47.042;15.498;2024-03-07T07:10:06;25.80;;;9.95;;
57441;SDS011;43284;47.042;15.498;2024-03-07T07:12:35;27.02;;;9.77;;
57441;SDS011;43284;47.042;15.498;2024-03-07T07:15:03;23.75;;;8.68;;
57441;SDS011;43284;47.042;15.498;2024-03-07T07:17:29;23.88;;;8.32;;
57441;SDS011;43284;47.042;15.498;2024-03-07T07:19:56;20.23;;;7.55;;
57441;SDS011;43284;47.042;15.498;2024-03-07T07:22:22;19.73;;;7.57;;
57441;SDS011;43284;47.042;15.498;2024-03-07T07:24:49;21.33;;;8.23;;
57441;SDS011;43284;47.042;15.498;2024-03-07T07:27:15;18.80;;;6.82;;
57441;SDS011;43284;47.042;15.498;2024-03-07T07:29:40;25.17;;;10.07;;
57441;SDS011;43284;47.042;15.498;2024-03-07T07:32:06;31.80;;;10.57;;
57441;SDS011;43284;47.042;15.498;2024-03-07T07:34:32;18.73;;;7.97;;
57441;SDS011;43284;47.042;15.498;2024-03-07T07:36:58;21.45;;;8.55;;
57441;SDS011;43284;47.042;15.498;2024-03-07T07:39:24;22.40;;;9.07;;
57441;SDS011;43284;47.042;15.498;2024-03-07T07:41:49;21.17;;;8.35;;
57441;SDS011;43284;47.042;15.498;2024-03-07T07:44:15;22.58;;;7.90;;
57441;SDS011;43284;47.042;15.498;2024-03-07T07:46:43;20.83;;;7.40;;
57441;SDS011;43284;47.042;15.498;2024-03-07T07:49:09;20.48;;;9.07;;
57441;SDS011;43284;47.042;15.498;2024-03-07T07:51:34;24.27;;;9.45;;
57441;SDS011;43284;47.042;15.498;2024-03-07T07:54:00;20.73;;;9.18;;
57441;SDS011;43284;47.042;15.498;2024-03-07T07:56:25;19.23;;;7.53;;
57441;SDS011;43284;47.042;15.498;2024-03-07T07:58:53;22.08;;;8.32;;
57441;SDS011;43284;47.042;15.498;2024-03-07T08:01:19;18.92;;;8.35;;
57441;SDS011;43284;47.042;15.498;2024-03-07T08:03:45;20.52;;;8.52;;
57441;SDS011;43284;47.042;15.498;2024-03-07T08:06:10;20.80;;;8.88;;
57441;SDS011;43284;47.042;15.498;2024-03-07T08:08:36;24.98;;;8.80;;
57441;SDS011;43284;47.042;15.498;2024-03-07T08:11:01;19.77;;;8.63;;
57441;SDS011;43284;47.042;15.498;2024-03-07T08:13:27;24.02;;;9.45;;
57441;SDS011;43284;47.042;15.498;2024-03-07T08:15:53;20.75;;;8.43;;
57441;SDS011;43284;47.042;15.498;2024-03-07T08:18:19;24.08;;;8.75;;
57441;SDS011;43284;47.042;15.498;2024-03-07T08:20:45;19.58;;;8.50;;
57441;SDS011;43284;47.042;15.498;2024-03-07T08:23:11;21.63;;;8.23;;
57441;SDS011;43284;47.042;15.498;2024-03-07T08:25:39;21.50;;;9.25;;
57441;SDS011;43284;47.042;15.498;2024-03-07T08:28:07;23.33;;;8.15;;
57441;SDS011;43284;47.042;15.498;2024-03-07T08:30:33;20.63;;;8.05;;
57441;SDS011;43284;47.042;15.498;2024-03-07T08:33:00;25.02;;;9.75;;
57441;SDS011;43284;47.042;15.498;2024-03-07T08:35:30;26.23;;;9.00;;
57441;SDS011;43284;47.042;15.498;2024-03-07T08:38:00;23.33;;;9.10;;
57441;SDS011;43284;47.042;15.498;2024-03-07T08:40:29;18.30;;;8.45;;
57441;SDS011;43284;47.042;15.498;2024-03-07T08:42:59;21.58;;;8.82;;
57441;SDS011;43284;47.042;15.498;2024-03-07T08:45:26;23.55;;;8.93;;
57441;SDS011;43284;47.042;15.498;2024-03-07T08:47:53;20.35;;;9.55;;
57441;SDS011;43284;47.042;15.498;2024-03-07T08:50:25;23.48;;;10.10;;
57441;SDS011;43284;47.042;15.498;2024-03-07T08:52:52;17.73;;;8.82;;
57441;SDS011;43284;47.042;15.498;2024-03-07T08:55:23;20.65;;;9.00;;
57441;SDS011;43284;47.042;15.498;2024-03-07T08:57:51;21.73;;;9.10;;
57441;SDS011;43284;47.042;15.498;2024-03-07T09:00:18;19.80;;;7.80;;
57441;SDS011;43284;47.042;15.498;2024-03-07T09:02:52;22.23;;;8.05;;
57441;SDS011;43284;47.042;15.498;2024-03-07T09:05:20;19.48;;;8.15;;
57441;SDS011;43284;47.042;15.498;2024-03-07T09:07:50;18.35;;;7.68;;
57441;SDS011;43284;47.042;15.498;2024-03-07T09:10:19;16.63;;;6.80;;
57441;SDS011;43284;47.042;15.498;2024-03-07T09:12:45;17.10;;;7.07;;
57441;SDS011;43284;47.042;15.498;2024-03-07T09:15:11;13.20;;;6.43;;
57441;SDS011;43284;47.042;15.498;2024-03-07T09:17:37;21.48;;;7.57;;
57441;SDS011;43284;47.042;15.498;2024-03-07T09:20:06;17.23;;;7.68;;
57441;SDS011;43284;47.042;15.498;2024-03-07T09:22:34;22.92;;;8.27;;
57441;SDS011;43284;47.042;15.498;2024-03-07T09:24:59;16.48;;;7.68;;
57441;SDS011;43284;47.042;15.498;2024-03-07T09:27:26;16.92;;;8.32;;
57441;SDS011;43284;47.042;15.498;2024-03-07T09:29:54;21.65;;;8.30;;
57441;SDS011;43284;47.042;15.498;2024-03-07T09:32:19;17.50;;;7.18;;
57441;SDS011;43284;47.042;15.498;2024-03-07T09:34:47;16.88;;;7.28;;
57441;SDS011;43284;47.042;15.498;2024-03-07T09:37:12;17.10;;;7.65;;
57441;SDS011;43284;47.042;15.498;2024-03-07T09:39:38;18.65;;;7.10;;
57441;SDS011;43284;47.042;15.498;2024-03-07T09:42:07;15.20;;;7.15;;
57441;SDS011;43284;47.042;15.498;2024-03-07T09:44:38;14.55;;;7.20;;
57441;SDS011;43284;47.042;15.498;2024-03-07T09:47:07;13.20;;;6.22;;
57441;SDS011;43284;47.042;15.498;2024-03-07T09:49:33;12.07;;;6.90;;
57441;SDS011;43284;47.042;15.498;2024-03-07T09:52:08;17.00;;;6.05;;
57441;SDS011;43284;47.042;15.498;2024-03-07T09:54:41;11.27;;;5.88;;
57441;SDS011;43284;47.042;15.498;2024-03-07T09:57:07;13.00;;;5.47;;
57441;SDS011;43284;47.042;15.498;2024-03-07T09:59:34;12.13;;;5.00;;
57441;SDS011;43284;47.042;15.498;2024-03-07T10:02:01;8.85;;;4.80;;
57441;SDS011;43284;47.042;15.498;2024-03-07T10:07:14;11.07;;;5.30;;
57441;SDS011;43284;47.042;15.498;2024-03-07T10:09:40;11.13;;;5.97;;
57441;SDS011;43284;47.042;15.498;2024-03-07T10:12:07;6.95;;;3.63;;
57441;SDS011;43284;47.042;15.498;2024-03-07T10:14:37;6.53;;;3.03;;
57441;SDS011;43284;47.042;15.498;2024-03-07T10:17:24;10.18;;;3.80;;
57441;SDS011;43284;47.042;15.498;2024-03-07T10:19:52;8.35;;;4.13;;
57441;SDS011;43284;47.042;15.498;2024-03-07T10:22:19;9.10;;;3.45;;
57441;SDS011;43284;47.042;15.498;2024-03-07T10:24:55;6.88;;;4.00;;
57441;SDS011;43284;47.042;15.498;2024-03-07T10:27:25;7.03;;;3.45;;
57441;SDS011;43284;47.042;15.498;2024-03-07T10:29:52;6.05;;;3.55;;
57441;SDS011;43284;47.042;15.498;2024-03-07T10:32:24;7.35;;;3.25;;
57441;SDS011;43284;47.042;15.498;2024-03-07T10:34:51;7.70;;;3.42;;
57441;SDS011;43284;47.042;15.498;2024-03-07T10:37:17;5.18;;;3.00;;
57441;SDS011;43284;47.042;15.498;2024-03-07T10:39:48;6.20;;;3.10;;
57441;SDS011;43284;47.042;15.498;2024-03-07T10:42:17;7.68;;;3.25;;
57441;SDS011;43284;47.042;15.498;2024-03-07T10:44:47;7.05;;;2.50;;
57441;SDS011;43284;47.042;15.498;2024-03-07T10:47:17;4.90;;;2.92;;
57441;SDS011;43284;47.042;15.498;2024-03-07T10:49:48;15.65;;;5.57;;
57441;SDS011;43284;47.042;15.498;2024-03-07T10:52:48;6.28;;;3.17;;
57441;SDS011;43284;47.042;15.498;2024-03-07T10:55:30;6.18;;;3.10;;
57441;SDS011;43284;47.042;15.498;2024-03-07T11:00:56;5.57;;;3.50;;
57441;SDS011;43284;47.042;15.498;2024-03-07T11:03:28;5.80;;;3.53;;
57441;SDS011;43284;47.042;15.498;2024-03-07T11:05:57;6.25;;;3.50;;
57441;SDS011;43284;47.042;15.498;2024-03-07T11:08:25;8.43;;;3.70;;
57441;SDS011;43284;47.042;15.498;2024-03-07T11:10:52;5.90;;;3.10;;
57441;SDS011;43284;47.042;15.498;2024-03-07T11:13:18;6.65;;;3.92;;
57441;SDS011;43284;47.042;15.498;2024-03-07T11:15:45;5.93;;;3.22;;
57441;SDS011;43284;47.042;15.498;2024-03-07T11:18:13;7.10;;;3.50;;
57441;SDS011;43284;47.042;15.498;2024-03-07T11:20:39;5.45;;;2.85;;
57441;SDS011;43284;47.042;15.498;2024-03-07T11:26:07;9.95;;;3.53;;
57441;SDS011;43284;47.042;15.498;2024-03-07T11:28:34;5.85;;;3.05;;
57441;SDS011;43284;47.042;15.498;2024-03-07T11:36:46;10.10;;;3.42;;
57441;SDS011;43284;47.042;15.498;2024-03-07T11:42:19;9.70;;;3.60;;
57441;SDS011;43284;47.042;15.498;2024-03-07T11:44:46;7.35;;;3.45;;
57441;SDS011;43284;47.042;15.498;2024-03-07T11:47:12;8.60;;;4.15;;
57441;SDS011;43284;47.042;15.498;2024-03-07T11:49:38;6.93;;;3.58;;
57441;SDS011;43284;47.042;15.498;2024-03-07T11:52:04;8.85;;;3.83;;
57441;SDS011;43284;47.042;15.498;2024-03-07T11:54:39;5.65;;;3.42;;
57441;SDS011;43284;47.042;15.498;2024-03-07T11:57:11;8.70;;;3.60;;
57441;SDS011;43284;47.042;15.498;2024-03-07T11:59:51;9.50;;;4.07;;
57441;SDS011;43284;47.042;15.498;2024-03-07T12:02:21;10.48;;;3.92;;
57441;SDS011;43284;47.042;15.498;2024-03-07T12:04:47;7.10;;;3.83;;
57441;SDS011;43284;47.042;15.498;2024-03-07T12:07:16;8.80;;;3.78;;
57441;SDS011;43284;47.042;15.498;2024-03-07T12:09:45;8.85;;;3.88;;
57441;SDS011;43284;47.042;15.498;2024-03-07T12:12:15;11.73;;;3.63;;
57441;SDS011;43284;47.042;15.498;2024-03-07T12:14:46;13.90;;;5.57;;
57441;SDS011;43284;47.042;15.498;2024-03-07T12:17:13;7.32;;;3.60;;
57441;SDS011;43284;47.042;15.498;2024-03-07T12:19:41;7.82;;;3.50;;
57441;SDS011;43284;47.042;15.498;2024-03-07T12:22:08;7.88;;;3.25;;
57441;SDS011;43284;47.042;15.498;2024-03-07T12:24:47;7.60;;;3.45;;
57441;SDS011;43284;47.042;15.498;2024-03-07T12:27:26;9.18;;;4.07;;
57441;SDS011;43284;47.042;15.498;2024-03-07T12:29:52;8.07;;;4.25;;
57441;SDS011;43284;47.042;15.498;2024-03-07T12:32:19;7.88;;;3.70;;
57441;SDS011;43284;47.042;15.498;2024-03-07T12:34:46;8.50;;;3.70;;
57441;SDS011;43284;47.042;15.498;2024-03-07T12:37:14;7.55;;;3.95;;
57441;SDS011;43284;47.042;15.498;2024-03-07T12:39:44;5.53;;;3.13;;
57441;SDS011;43284;47.042;15.498;2024-03-07T12:42:15;7.80;;;3.28;;
57441;SDS011;43284;47.042;15.498;2024-03-07T12:44:50;8.45;;;3.80;;
57441;SDS011;43284;47.042;15.498;2024-03-07T12:47:16;6.55;;;3.03;;
57441;SDS011;43284;47.042;15.498;2024-03-07T12:49:45;9.23;;;3.60;;
57441;SDS011;43284;47.042;15.498;2024-03-07T12:52:11;7.22;;;3.75;;
57441;SDS011;43284;47.042;15.498;2024-03-07T12:54:43;8.48;;;4.90;;
57441;SDS011;43284;47.042;15.498;2024-03-07T12:57:11;6.30;;;2.97;;
57441;SDS011;43284;47.042;15.498;2024-03-07T12:59:39;7.03;;;3.38;;
57441;SDS011;43284;47.042;15.498;2024-03-07T13:02:06;5.93;;;3.15;;
57441;SDS011;43284;47.042;15.498;2024-03-07T13:04:35;6.22;;;3.03;;
57441;SDS011;43284;47.042;15.498;2024-03-07T13:07:04;8.00;;;3.22;;
57441;SDS011;43284;47.042;15.498;2024-03-07T13:09:33;8.45;;;3.42;;
57441;SDS011;43284;47.042;15.498;2024-03-07T13:11:59;7.03;;;3.17;;
57441;SDS011;43284;47.042;15.498;2024-03-07T13:14:27;6.32;;;3.45;;
57441;SDS011;43284;47.042;15.498;2024-03-07T13:17:04;6.82;;;3.15;;
57441;SDS011;43284;47.042;15.498;2024-03-07T13:19:33;5.75;;;3.13;;
57441;SDS011;43284;47.042;15.498;2024-03-07T13:21:59;10.00;;;3.28;;
57441;SDS011;43284;47.042;15.498;2024-03-07T13:24:30;8.27;;;3.05;;
57441;SDS011;43284;47.042;15.498;2024-03-07T13:26:56;7.65;;;3.40;;
57441;SDS011;43284;47.042;15.498;2024-03-07T13:29:22;5.50;;;2.50;;
57441;SDS011;43284;47.042;15.498;2024-03-07T13:31:52;6.07;;;3.30;;
57441;SDS011;43284;47.042;15.498;2024-03-07T13:34:21;6.55;;;2.80;;
57441;SDS011;43284;47.042;15.498;2024-03-07T13:36:47;9.05;;;3.40;;
57441;SDS011;43284;47.042;15.498;2024-03-07T13:39:16;7.75;;;2.97;;
57441;SDS011;43284;47.042;15.498;2024-03-07T13:41:44;6.65;;;2.90;;
57441;SDS011;43284;47.042;15.498;2024-03-07T13:44:13;5.75;;;2.80;;
57441;SDS011;43284;47.042;15.498;2024-03-07T13:46:39;7.03;;;3.05;;
57441;SDS011;43284;47.042;15.498;2024-03-07T13:49:05;10.75;;;3.90;;
57441;SDS011;43284;47.042;15.498;2024-03-07T13:51:42;7.43;;;4.10;;
57441;SDS011;43284;47.042;15.498;2024-03-07T13:54:31;5.75;;;3.28;;
57441;SDS011;43284;47.042;15.498;2024-03-07T14:02:48;6.63;;;3.50;;
57441;SDS011;43284;47.042;15.498;2024-03-07T14:05:32;6.70;;;3.05;;
57441;SDS011;43284;47.042;15.498;2024-03-07T14:08:18;6.88;;;3.25;;
57441;SDS011;43284;47.042;15.498;2024-03-07T14:16:53;7.05;;;3.70;;
57441;SDS011;43284;47.042;15.498;2024-03-07T14:25:46;8.05;;;3.60;;
57441;SDS011;43284;47.042;15.498;2024-03-07T14:31:07;7.22;;;3.65;;
57441;SDS011;43284;47.042;15.498;2024-03-07T14:33:50;6.80;;;3.65;;
57441;SDS011;43284;47.042;15.498;2024-03-07T14:36:44;6.78;;;3.20;;
57441;SDS011;43284;47.042;15.498;2024-03-07T14:39:34;5.22;;;2.95;;
57441;SDS011;43284;47.042;15.498;2024-03-07T14:42:11;7.50;;;3.72;;
57441;SDS011;43284;47.042;15.498;2024-03-07T14:44:45;8.88;;;3.97;;
57441;SDS011;43284;47.042;15.498;2024-03-07T14:47:20;7.13;;;2.90;;
57441;SDS011;43284;47.042;15.498;2024-03-07T14:49:46;8.77;;;3.05;;
57441;SDS011;43284;47.042;15.498;2024-03-07T14:52:12;8.07;;;3.38;;
57441;SDS011;43284;47.042;15.498;2024-03-07T14:54:41;8.82;;;3.10;;
57441;SDS011;43284;47.042;15.498;2024-03-07T14:57:07;7.78;;;3.67;;
57441;SDS011;43284;47.042;15.498;2024-03-07T14:59:36;7.38;;;4.15;;
57441;SDS011;43284;47.042;15.498;2024-03-07T15:02:02;6.43;;;3.47;;
57441;SDS011;43284;47.042;15.498;2024-03-07T15:04:36;7.93;;;3.28;;
57441;SDS011;43284;47.042;15.498;2024-03-07T15:07:02;8.27;;;4.03;;
57441;SDS011;43284;47.042;15.498;2024-03-07T15:09:33;8.35;;;3.42;;
57441;SDS011;43284;47.042;15.498;2024-03-07T15:12:01;7.28;;;3.53;;